createdAt,value
2023-03-05T00:03:42.854Z,30
2023-03-05T00:09:35.979Z,30
2023-03-05T00:15:28.366Z,30
2023-03-05T00:21:20.568Z,30
2023-03-05T00:26:26.339Z,30
2023-03-05T00:32:22.155Z,29.9
2023-03-05T00:38:14.898Z,29.9
2023-03-05T00:44:08.686Z,29.9
2023-03-05T00:50:01.776Z,29.9
2023-03-05T00:55:54.115Z,29.9
2023-03-05T01:01:47.204Z,29.9
2023-03-05T01:07:40.879Z,29.9
2023-03-05T01:13:32.248Z,29.9
2023-03-05T01:19:09.709Z,29.8
2023-03-05T01:25:02.560Z,29.8
2023-03-05T01:30:39.553Z,29.8
2023-03-05T01:36:03.113Z,29.8
2023-03-05T01:41:56.494Z,29.8
2023-03-05T01:47:49.642Z,29.8
2023-03-05T01:53:27.155Z,29.8
2023-03-05T01:59:20.624Z,29.8
2023-03-05T02:05:13.204Z,29.8
2023-03-05T02:10:50.253Z,29.8
2023-03-05T02:16:27.301Z,30.3
2023-03-05T02:22:04.310Z,31.1
2023-03-05T02:27:56.338Z,32.3
2023-03-05T02:33:18.383Z,33.4
2023-03-05T02:39:11.012Z,34.6
2023-03-05T02:45:03.067Z,35.8
2023-03-05T02:50:55.863Z,36.9
2023-03-05T02:56:49.173Z,38.2
2023-03-05T03:02:42.668Z,39.3
2023-03-05T03:08:35.391Z,40.4
2023-03-05T03:13:57.511Z,41.5
2023-03-05T03:19:35.558Z,42.7
2023-03-05T03:25:27.820Z,43.9
2023-03-05T03:30:50.361Z,44.9
2023-03-05T03:36:42.619Z,45.4
2023-03-05T03:42:19.719Z,45.4
2023-03-05T03:48:12.335Z,45.4
2023-03-05T03:53:49.074Z,45.4
2023-03-05T03:59:40.897Z,45.4
2023-03-05T04:05:34.001Z,45.4
2023-03-05T04:11:25.501Z,45.4
2023-03-05T04:17:03.216Z,45.4
2023-03-05T04:22:40.306Z,45.4
2023-03-05T04:28:33.141Z,45.3
2023-03-05T04:34:25.805Z,45.3
2023-03-05T04:40:18.930Z,45.3
2023-03-05T04:46:10.746Z,45.3
2023-03-05T04:52:02.961Z,45.3
2023-03-05T04:57:41.558Z,45.2
2023-03-05T05:03:19.198Z,45.2
2023-03-05T05:08:56.215Z,45.2
2023-03-05T05:14:48.910Z,45.1
2023-03-05T05:20:42.206Z,45.1
2023-03-05T05:26:34.771Z,45.1
2023-03-05T05:32:28.099Z,45.1
2023-03-05T05:38:20.759Z,45
2023-03-05T05:44:13.345Z,45
2023-03-05T05:50:06.736Z,45
2023-03-05T05:55:59.846Z,44.9
2023-03-05T06:01:37.105Z,44.9
2023-03-05T06:07:33.023Z,44.9
2023-03-05T06:13:25.522Z,44.9
2023-03-05T06:19:27.018Z,44.8
2023-03-05T06:25:19.183Z,44.8
2023-03-05T06:31:12.332Z,44.8
2023-03-05T06:37:04.783Z,44.8
2023-03-05T06:42:57.768Z,44.8
2023-03-05T06:48:35.070Z,44.8
2023-03-05T06:54:28.472Z,44.7
2023-03-05T07:00:22.237Z,44.6
2023-03-05T07:06:15.215Z,44.6
2023-03-05T07:12:07.756Z,44.6
2023-03-05T07:18:03.148Z,44.6
2023-03-05T07:23:55.733Z,44.6
2023-03-05T07:29:48.989Z,44.5
2023-03-05T07:35:42.345Z,44.5
2023-03-05T07:41:35.324Z,44.4
2023-03-05T07:47:13.569Z,44.4
2023-03-05T07:53:06.817Z,44.4
2023-03-05T07:58:45.539Z,44.4
2023-03-05T08:04:39.569Z,44.4
2023-03-05T08:10:32.709Z,44.4
2023-03-05T08:16:25.631Z,44.3
2023-03-05T08:22:03.565Z,44.3
2023-03-05T08:27:56.473Z,44.3
2023-03-05T08:33:51.990Z,44.3
2023-03-05T08:39:44.480Z,44.2
2023-03-05T08:45:39.072Z,44.2
2023-03-05T08:51:32.222Z,44.1
2023-03-05T08:57:24.708Z,44.2
2023-03-05T09:03:18.232Z,44.4
2023-03-05T09:08:55.358Z,44.5
2023-03-05T09:14:47.524Z,44.4
2023-03-05T09:20:41.663Z,44.4
2023-03-05T09:26:35.439Z,44.5
2023-03-05T09:32:29.240Z,44.5
2023-03-05T09:38:22.806Z,44.5
2023-03-05T09:44:15.400Z,44.5
2023-03-05T09:50:08.749Z,44.4
2023-03-05T09:56:01.396Z,44.4
2023-03-05T10:01:53.438Z,44.4
2023-03-05T10:07:46.210Z,44.4
2023-03-05T10:13:39.116Z,44.4
2023-03-05T10:19:32.524Z,44.4
2023-03-05T10:24:54.123Z,44.4
2023-03-05T10:30:46.727Z,44.3
2023-03-05T10:36:40.816Z,44.3
2023-03-05T10:42:34.461Z,44.3
2023-03-05T10:48:27.746Z,44.3
2023-03-05T10:54:21.401Z,44.3
2023-03-05T10:59:58.457Z,44.2
2023-03-05T11:05:54.640Z,44.2
2023-03-05T11:11:47.528Z,44.3
2023-03-05T11:17:27.159Z,44.5
2023-03-05T11:23:22.387Z,44.9
2023-03-05T11:29:22.540Z,45.1
2023-03-05T11:35:16.058Z,45.2
2023-03-05T11:40:53.516Z,45.3
2023-03-05T11:46:48.036Z,45.4
2023-03-05T11:52:42.665Z,45.6
2023-03-05T11:58:36.671Z,45.9
2023-03-05T12:04:33.263Z,46.3
2023-03-05T12:10:10.350Z,46.6
2023-03-05T12:16:04.311Z,46.8
2023-03-05T12:21:42.276Z,46.9
2023-03-05T12:27:19.686Z,47
2023-03-05T12:33:16.331Z,47.2
2023-03-05T12:39:32.216Z,47.4
2023-03-05T12:45:26.145Z,47.6
2023-03-05T12:51:04.654Z,47.6
2023-03-05T12:56:44.526Z,47.6
2023-03-05T13:02:22.243Z,47.6
2023-03-05T13:08:00.184Z,47.6
2023-03-05T13:13:54.618Z,47.6
2023-03-05T13:19:47.871Z,47.6
2023-03-05T13:25:41.477Z,47.6
2023-03-05T13:31:35.740Z,47.6
2023-03-05T13:37:38.388Z,47.6
2023-03-05T13:43:33.252Z,47.5
2023-03-05T13:49:26.858Z,47.5
2023-03-05T13:55:20.447Z,47.4
2023-03-05T14:01:17.187Z,47.4
2023-03-05T14:07:14.774Z,47.4
2023-03-05T14:13:08.411Z,47.4
2023-03-05T14:18:14.808Z,47.3
2023-03-05T14:24:15.866Z,47.3
2023-03-05T14:30:09.780Z,47.3
2023-03-05T14:36:03.862Z,47.3
2023-03-05T14:41:42.750Z,47.3
2023-03-05T14:47:19.708Z,47.2
2023-03-05T14:52:40.695Z,47.2
2023-03-05T14:58:17.921Z,47.1
2023-03-05T15:04:13.355Z,47.1
2023-03-05T15:10:06.439Z,47.1
2023-03-05T15:15:59.647Z,47.1
2023-03-05T15:21:37.239Z,47.1
2023-03-05T15:27:15.784Z,47
2023-03-05T15:32:41.579Z,46.9
2023-03-05T15:38:02.487Z,46.9
2023-03-05T15:43:40.443Z,46.9
2023-03-05T15:49:17.663Z,46.9
2023-03-05T15:54:56.137Z,46.9
2023-03-05T16:00:33.697Z,46.8
2023-03-05T16:06:11.004Z,46.8
2023-03-05T16:11:49.322Z,46.8
2023-03-05T16:17:27.964Z,46.8
2023-03-05T16:23:05.452Z,46.7
2023-03-05T16:28:42.389Z,46.7
2023-03-05T16:34:19.999Z,46.7
2023-03-05T16:39:42.180Z,46.6
2023-03-05T16:45:44.395Z,46.6
2023-03-05T16:51:07.352Z,46.6
2023-03-05T16:56:51.801Z,46.5
2023-03-05T17:02:33.549Z,46.5
2023-03-05T17:08:12.254Z,46.4
2023-03-05T17:13:49.330Z,46.4
2023-03-05T17:19:27.662Z,46.4
2023-03-05T17:25:06.569Z,46.4
2023-03-05T17:30:44.120Z,46.4
2023-03-05T17:36:32.347Z,46.3
2023-03-05T17:42:09.457Z,46.3
2023-03-05T17:47:47.089Z,46.3
2023-03-05T17:53:39.427Z,46.3
2023-03-05T17:59:33.537Z,46.2
2023-03-05T18:05:26.952Z,46.1
2023-03-05T18:11:04.466Z,46.1
2023-03-05T18:16:42.623Z,46.1
2023-03-05T18:22:38.074Z,46.1
2023-03-05T18:28:30.993Z,46.1
2023-03-05T18:34:23.205Z,46
2023-03-05T18:40:19.176Z,45.9
2023-03-05T18:45:59.614Z,45.9
2023-03-05T18:51:37.889Z,45.9
2023-03-05T18:57:30.488Z,45.9
2023-03-05T19:03:23.250Z,45.9
2023-03-05T19:09:17.473Z,45.8
2023-03-05T19:14:55.080Z,45.8
2023-03-05T19:20:33.302Z,45.8
2023-03-05T19:26:26.103Z,45.8
2023-03-05T19:32:18.814Z,45.7
2023-03-05T19:38:12.080Z,45.6
2023-03-05T19:44:05.394Z,45.6
2023-03-05T19:49:59.353Z,45.6
2023-03-05T19:55:39.932Z,45.6
2023-03-05T20:01:02.486Z,45.5
2023-03-05T20:06:56.586Z,45.5
2023-03-05T20:12:35.495Z,45.4
2023-03-05T20:18:28.410Z,45.4
2023-03-05T20:24:25.768Z,45.4
2023-03-05T20:30:07.297Z,46.3
2023-03-05T20:36:01.836Z,47.4
2023-03-05T20:41:56.352Z,48.5
2023-03-05T20:47:19.303Z,49.4
2023-03-05T20:52:57.170Z,50.4
2023-03-05T20:58:20.272Z,51.4
2023-03-05T21:09:06.521Z,53.3
2023-03-05T21:15:00.403Z,53.8
2023-03-05T21:20:40.509Z,53.8
2023-03-05T21:26:33.636Z,53.8
2023-03-05T21:32:11.767Z,53.8
2023-03-05T21:38:06.723Z,53.8
2023-03-05T21:43:44.099Z,53.8
2023-03-05T21:49:37.659Z,53.8
2023-03-05T21:55:30.077Z,53.7
2023-03-05T22:01:22.484Z,53.7
2023-03-05T22:06:59.692Z,53.6
2023-03-05T22:12:36.038Z,53.6
2023-03-05T22:18:29.737Z,53.6
2023-03-05T22:24:07.535Z,53.6
2023-03-05T22:30:00.493Z,53.5
2023-03-05T22:35:37.730Z,53.5
2023-03-05T22:41:15.769Z,53.4
2023-03-05T22:46:52.299Z,53.4
2023-03-05T22:52:45.043Z,53.4
2023-03-05T22:58:22.203Z,53.4
2023-03-05T23:03:44.607Z,53.3
2023-03-05T23:09:37.146Z,53.3
2023-03-05T23:15:30.322Z,53.3
2023-03-05T23:20:36.270Z,53.3
2023-03-05T23:26:13.326Z,53.2
2023-03-05T23:31:51.795Z,53.2
2023-03-05T23:37:44.467Z,53.1
2023-03-05T23:43:06.954Z,53.1
2023-03-05T23:48:44.167Z,53.1
2023-03-05T23:54:25.243Z,53
